createdAt,value
2018-01-30T00:01:23.215Z,1.97
2018-01-30T00:03:49.489Z,1.07
2018-01-30T00:06:15.771Z,0.50
2018-01-30T00:08:42.080Z,1.17
2018-01-30T00:11:09.056Z,0.50
2018-01-30T00:13:35.276Z,0.50
2018-01-30T00:16:16.480Z,0.40
2018-01-30T00:18:42.725Z,0.40
2018-01-30T00:21:08.973Z,0.50
2018-01-30T00:23:35.212Z,0.50
2018-01-30T00:26:01.492Z,2.00
2018-01-30T00:28:27.776Z,0.50
2018-01-30T00:30:54.797Z,0.40
2018-01-30T00:33:21.080Z,0.50
2018-01-30T00:35:47.352Z,0.50
2018-01-30T00:38:13.567Z,1.03
2018-01-30T00:40:39.868Z,0.40
2018-01-30T00:43:06.156Z,0.50
2018-01-30T00:45:32.440Z,0.50
2018-01-30T00:47:58.661Z,0.50
2018-01-30T00:50:24.916Z,0.43
2018-01-30T00:52:51.156Z,0.40
2018-01-30T00:55:17.410Z,0.47
2018-01-30T00:57:44.424Z,0.40
2018-01-30T01:00:10.743Z,1.20
2018-01-30T01:02:37.744Z,0.40
2018-01-30T01:05:04.761Z,0.50
2018-01-30T01:07:30.940Z,0.50
2018-01-30T01:09:57.188Z,0.50
2018-01-30T01:12:23.452Z,0.50
2018-01-30T01:14:49.666Z,1.73
2018-01-30T01:17:15.936Z,0.50
2018-01-30T01:19:42.167Z,0.50
2018-01-30T01:22:08.409Z,0.50
2018-01-30T01:24:34.643Z,0.40
2018-01-30T01:27:00.915Z,0.50
2018-01-30T01:29:27.148Z,0.50
2018-01-30T01:31:53.379Z,0.50
2018-01-30T01:34:19.611Z,0.50
2018-01-30T01:36:45.867Z,0.50
2018-01-30T01:39:12.065Z,0.50
2018-01-30T01:41:38.379Z,0.50
2018-01-30T01:44:04.595Z,0.40
2018-01-30T01:46:30.856Z,0.77
2018-01-30T01:48:57.052Z,0.50
2018-01-30T01:51:23.332Z,0.40
2018-01-30T01:53:49.543Z,1.47
2018-01-30T01:56:16.536Z,0.40
2018-01-30T01:58:42.749Z,0.40
2018-01-30T02:01:09.022Z,0.40
2018-01-30T02:03:35.241Z,0.47
2018-01-30T02:06:01.523Z,0.50
2018-01-30T02:08:28.555Z,0.50
2018-01-30T02:10:55.536Z,0.50
2018-01-30T02:13:21.752Z,0.47
2018-01-30T02:15:48.029Z,0.50
2018-01-30T02:18:14.236Z,0.40
2018-01-30T02:20:40.668Z,0.50
2018-01-30T15:09:59.024Z,3.00
2018-01-30T15:12:25.207Z,2.47
2018-01-30T15:14:52.257Z,2.33
2018-01-30T15:17:19.195Z,2.43
2018-01-30T15:19:46.447Z,2.40
2018-01-30T15:22:13.453Z,2.60
2018-01-30T15:24:39.656Z,3.03
2018-01-30T15:27:05.928Z,2.57
2018-01-30T15:29:32.119Z,3.23
2018-01-30T15:31:58.327Z,4.33
2018-01-30T15:34:24.519Z,3.13
2018-01-30T15:36:50.724Z,3.60
2018-01-30T15:39:16.925Z,3.20
2018-01-30T15:41:43.197Z,3.00
2018-01-30T15:44:09.389Z,4.00
2018-01-30T15:46:35.599Z,3.50
2018-01-30T15:49:01.819Z,3.03
2018-01-30T15:51:28.037Z,3.23
2018-01-30T15:53:54.980Z,3.83
2018-01-30T15:56:21.923Z,3.50
2018-01-30T15:58:48.909Z,4.90
2018-01-30T16:01:15.132Z,4.07
2018-01-30T16:03:41.361Z,3.80
2018-01-30T16:06:07.565Z,3.47
2018-01-30T16:08:33.777Z,3.53
2018-01-30T16:11:00.728Z,4.10
2018-01-30T16:13:27.693Z,4.03
2018-01-30T16:15:53.900Z,4.40
2018-01-30T16:18:20.862Z,4.17
2018-01-30T16:20:47.069Z,3.90
2018-01-30T16:23:14.056Z,4.87
2018-01-30T16:25:55.233Z,3.63
2018-01-30T16:28:21.457Z,3.30
2018-01-30T16:30:47.648Z,3.07
2018-01-30T16:33:14.625Z,3.80
2018-01-30T16:35:40.820Z,4.30
2018-01-30T16:38:07.780Z,4.57
2018-01-30T16:40:33.979Z,4.17
2018-01-30T16:43:00.205Z,3.33
2018-01-30T16:45:26.443Z,3.60
2018-01-30T16:47:52.656Z,4.50
2018-01-30T16:50:18.868Z,4.60
2018-01-30T16:52:45.101Z,12.10
2018-01-30T16:55:11.284Z,4.40
2018-01-30T16:57:37.496Z,4.10
2018-01-30T17:00:04.469Z,5.40
2018-01-30T17:02:30.688Z,8.17
2018-01-30T17:04:56.868Z,4.90
2018-01-30T17:07:23.086Z,3.63
2018-01-30T17:09:49.275Z,4.13
2018-01-30T17:12:15.498Z,5.20
2018-01-30T17:14:41.711Z,5.67
2018-01-30T17:17:08.744Z,13.13
2018-01-30T17:19:35.743Z,10.43
2018-01-30T17:22:01.997Z,6.30
2018-01-30T17:24:28.204Z,6.30
2018-01-30T17:26:55.268Z,11.33
2018-01-30T17:29:21.464Z,19.40
2018-01-30T17:31:47.733Z,11.47
2018-01-30T17:34:13.935Z,11.73
2018-01-30T17:36:40.897Z,7.40
2018-01-30T17:39:07.207Z,9.47
2018-01-30T17:41:33.472Z,22.40
2018-01-30T17:43:59.771Z,37.03
2018-01-30T17:46:25.987Z,11.30
2018-01-30T17:48:52.237Z,10.43
2018-01-30T17:51:19.323Z,11.80
2018-01-30T17:53:46.260Z,14.13
2018-01-30T17:56:12.468Z,11.33
2018-01-30T17:58:38.665Z,15.80
2018-01-30T18:01:04.882Z,14.80
2018-01-30T18:03:31.068Z,12.47
2018-01-30T18:05:57.297Z,13.03
2018-01-30T18:08:23.604Z,15.20
2018-01-30T18:10:49.787Z,13.33
2018-01-30T18:13:15.991Z,20.00
2018-01-30T18:15:42.923Z,21.03
2018-01-30T18:18:09.152Z,19.33
2018-01-30T18:20:35.364Z,16.90
2018-01-30T18:23:01.594Z,12.70
2018-01-30T18:25:27.818Z,13.77
2018-01-30T18:27:54.032Z,40.80
2018-01-30T18:30:20.248Z,31.23
2018-01-30T18:32:46.460Z,18.37
2018-01-30T18:35:12.700Z,22.70
2018-01-30T18:37:38.964Z,20.77
2018-01-30T18:40:05.157Z,22.77
2018-01-30T18:42:31.372Z,16.47
2018-01-30T18:44:57.583Z,15.30
2018-01-30T18:47:24.565Z,21.10
2018-01-30T18:49:50.763Z,16.20
2018-01-30T18:52:16.984Z,21.10
2018-01-30T18:54:43.204Z,19.67
2018-01-30T18:57:10.190Z,16.27
2018-01-30T18:59:36.382Z,15.87
2018-01-30T19:02:03.361Z,16.90
2018-01-30T19:04:29.604Z,18.50
2018-01-30T19:06:55.900Z,15.70
2018-01-30T19:09:22.174Z,17.50
2018-01-30T19:11:48.562Z,16.87
2018-01-30T19:14:14.748Z,18.10
2018-01-30T19:16:41.059Z,18.57
2018-01-30T19:19:07.269Z,16.57
2018-01-30T19:21:33.544Z,15.47
2018-01-30T19:23:59.995Z,15.93
2018-01-30T19:26:26.973Z,18.20
2018-01-30T19:28:53.206Z,15.70
2018-01-30T19:31:20.492Z,15.63
2018-01-30T19:33:46.775Z,15.10
2018-01-30T19:36:13.031Z,15.60
2018-01-30T19:38:39.219Z,16.13
2018-01-30T19:41:05.454Z,16.13
2018-01-30T19:43:31.648Z,16.30
2018-01-30T19:45:57.998Z,16.57
2018-01-30T19:48:24.949Z,16.77
2018-01-30T19:50:52.165Z,17.30
2018-01-30T19:53:18.359Z,15.30
2018-01-30T19:55:44.643Z,16.50
2018-01-30T19:58:11.629Z,28.20
2018-01-30T20:00:37.895Z,19.37
2018-01-30T20:03:04.100Z,17.10
2018-01-30T20:05:30.316Z,19.03
2018-01-30T20:07:56.541Z,17.00
2018-01-30T20:10:22.724Z,18.90
2018-01-30T20:12:49.680Z,18.57
2018-01-30T20:15:16.624Z,18.20
2018-01-30T20:17:43.604Z,16.83
2018-01-30T20:20:09.800Z,17.30
2018-01-30T20:22:36.764Z,19.10
2018-01-30T20:25:02.987Z,16.70
2018-01-30T20:27:29.273Z,17.40
2018-01-30T20:29:55.476Z,16.33
2018-01-30T20:32:21.703Z,18.93
2018-01-30T20:34:47.922Z,16.83
2018-01-30T20:37:20.428Z,17.50
2018-01-30T20:39:46.631Z,18.27
2018-01-30T20:42:12.848Z,16.70
2018-01-30T20:44:39.047Z,18.17
2018-01-30T20:47:06.001Z,18.33
2018-01-30T20:49:32.205Z,18.00
2018-01-30T20:51:59.237Z,18.10
2018-01-30T20:54:25.516Z,18.30
2018-01-30T20:56:52.108Z,18.80
2018-01-30T20:59:18.323Z,19.30
2018-01-30T21:01:44.551Z,19.33
2018-01-30T21:04:10.811Z,18.93
2018-01-30T21:06:37.780Z,18.73
2018-01-30T21:09:04.151Z,17.63
2018-01-30T21:11:30.388Z,18.83
2018-01-30T21:13:56.585Z,16.40
2018-01-30T21:16:22.800Z,18.73
2018-01-30T21:18:48.980Z,19.40
2018-01-30T21:21:15.196Z,18.93
2018-01-30T21:23:41.381Z,19.33
2018-01-30T21:26:07.628Z,19.07
2018-01-30T21:28:33.828Z,18.20
2018-01-30T21:31:00.120Z,18.43
2018-01-30T21:33:26.460Z,17.80
2018-01-30T21:35:52.697Z,20.53
2018-01-30T21:38:19.689Z,20.03
2018-01-30T21:40:45.999Z,18.27
2018-01-30T21:43:12.269Z,18.33
2018-01-30T21:45:38.596Z,17.53
2018-01-30T21:48:04.852Z,19.00
2018-01-30T21:50:31.196Z,17.20
2018-01-30T21:52:58.453Z,16.50
2018-01-30T21:55:25.530Z,18.10
2018-01-30T21:57:52.133Z,18.80
2018-01-30T22:00:19.096Z,18.77
2018-01-30T22:02:45.369Z,17.13
2018-01-30T22:05:12.420Z,18.60
2018-01-30T22:07:38.641Z,18.27
2018-01-30T22:10:04.897Z,20.37
2018-01-30T22:12:31.171Z,18.57
2018-01-30T22:14:57.488Z,20.73
2018-01-30T22:17:23.737Z,19.87
2018-01-30T22:19:49.977Z,20.07
2018-01-30T22:22:16.188Z,20.47
2018-01-30T22:24:42.456Z,19.00
2018-01-30T22:27:08.732Z,21.77
2018-01-30T22:29:35.023Z,21.40
2018-01-30T22:32:01.253Z,21.60
2018-01-30T22:34:27.515Z,20.90
2018-01-30T22:36:53.792Z,20.27
2018-01-30T22:39:20.003Z,20.33
2018-01-30T22:41:46.217Z,20.63
2018-01-30T22:44:12.474Z,20.13
2018-01-30T22:46:38.743Z,20.17
